Time;durP1;ratioP1;P1;durP2;ratioP2;P2;SDS_P1;SDS_P2;PMS_P1;PMS_P2;Temp;Humidity;BMP_temperature;BMP_pressure;BME280_temperature;BME280_humidity;BME280_pressure;Samples;Min_cycle;Max_cycle;Signal;HPM_P1;HPM_P2
2023/05/28 00:00:48;;;;;;;7.17;4.50;;;17.10;55.10;;;;;;4934265;29;20616;-78
2023/05/28 00:03:17;;;;;;;6.10;3.80;;;17.10;55.40;;;;;;4934976;29;20577;-79
2023/05/28 00:05:43;;;;;;;7.20;4.40;;;17.10;55.20;;;;;;4932972;29;20573;-78
2023/05/28 00:08:09;;;;;;;9.23;5.07;;;17.10;55.30;;;;;;4934254;29;20601;-79
2023/05/28 00:10:35;;;;;;;6.00;4.50;;;17.00;55.40;;;;;;4944817;29;21062;-80
2023/05/28 00:13:01;;;;;;;8.60;4.53;;;17.00;55.40;;;;;;4953343;29;20584;-79
2023/05/28 00:15:27;;;;;;;5.63;4.43;;;16.90;55.40;;;;;;4968683;28;20176;-73
2023/05/28 00:17:53;;;;;;;8.83;5.00;;;16.90;55.50;;;;;;4951851;29;20703;-73
2023/05/28 00:20:22;;;;;;;8.43;5.10;;;16.80;55.70;;;;;;4939917;29;20720;-73
2023/05/28 00:22:48;;;;;;;7.13;4.37;;;16.80;55.90;;;;;;4933950;29;20567;-73
2023/05/28 00:25:14;;;;;;;5.50;3.90;;;16.70;55.90;;;;;;4933374;29;20577;-73
2023/05/28 00:27:40;;;;;;;6.67;4.20;;;16.70;55.90;;;;;;4948280;29;20654;-72
2023/05/28 00:30:06;;;;;;;6.23;4.40;;;16.70;56.00;;;;;;4932903;29;20600;-73
2023/05/28 00:32:32;;;;;;;6.50;4.80;;;16.60;56.00;;;;;;4932604;29;20185;-73
2023/05/28 00:34:58;;;;;;;9.73;5.53;;;16.50;56.00;;;;;;4949192;29;20599;-73
2023/05/28 00:37:24;;;;;;;6.90;4.30;;;16.50;56.20;;;;;;4917240;29;20257;-73
2023/05/28 00:39:49;;;;;;;6.07;4.90;;;16.50;56.30;;;;;;4932666;29;20212;-73
2023/05/28 00:42:15;;;;;;;9.80;4.60;;;16.50;56.50;;;;;;4948830;28;20735;-73
2023/05/28 00:44:42;;;;;;;6.97;4.87;;;16.40;56.40;;;;;;4932562;29;20184;-72
2023/05/28 00:47:09;;;;;;;6.30;4.27;;;16.40;56.50;;;;;;4948913;29;20240;-72
2023/05/28 00:49:35;;;;;;;4.83;3.70;;;16.40;56.50;;;;;;4932393;29;20671;-73
2023/05/28 00:52:02;;;;;;;7.00;4.40;;;16.40;56.50;;;;;;4932542;29;20850;-72
2023/05/28 00:54:29;;;;;;;6.57;4.20;;;16.40;56.60;;;;;;4933678;29;20577;-72
2023/05/28 00:57:00;;;;;;;12.30;5.10;;;16.40;56.70;;;;;;4948574;29;20628;-73
2023/05/28 00:59:27;;;;;;;6.53;3.53;;;16.40;56.70;;;;;;4947718;28;20633;-73
2023/05/28 01:01:53;;;;;;;7.77;4.37;;;16.40;56.80;;;;;;4932386;29;20612;-72
2023/05/28 01:04:21;;;;;;;8.60;3.53;;;16.40;56.90;;;;;;4949146;29;20616;-72
2023/05/28 01:06:48;;;;;;;6.17;4.27;;;16.30;56.90;;;;;;4962905;28;20752;-73
2023/05/28 01:09:15;;;;;;;7.00;3.80;;;16.30;57.00;;;;;;4932539;29;20585;-73
2023/05/28 01:11:43;;;;;;;7.70;4.03;;;16.30;57.10;;;;;;4947809;29;20624;-73
2023/05/28 01:14:14;;;;;;;7.87;3.83;;;16.20;57.20;;;;;;4947644;29;20613;-73
2023/05/28 01:16:40;;;;;;;10.27;3.95;;;16.20;57.20;;;;;;4932990;29;20601;-73
2023/05/28 01:19:09;;;;;;;7.70;4.20;;;16.20;57.40;;;;;;4948402;29;20205;-73
2023/05/28 01:21:40;;;;;;;6.50;3.70;;;16.10;57.60;;;;;;4931639;29;20199;-73
2023/05/28 01:24:07;;;;;;;8.32;4.50;;;16.00;57.60;;;;;;4948306;29;20593;-73
2023/05/28 01:26:33;;;;;;;6.45;3.63;;;16.00;57.60;;;;;;4908871;29;20274;-73
2023/05/28 01:28:59;;;;;;;7.27;3.83;;;16.00;57.60;;;;;;4948507;28;20192;-73
2023/05/28 01:31:26;;;;;;;5.28;4.22;;;16.00;57.80;;;;;;4931640;29;20647;-74
2023/05/28 01:33:53;;;;;;;6.37;3.70;;;15.90;57.80;;;;;;4931459;29;20177;-73
2023/05/28 01:36:31;;;;;;;7.87;3.90;;;15.90;57.90;;;;;;4935366;29;20577;-72
2023/05/28 01:39:02;;;;;;;5.87;4.03;;;15.80;58.30;;;;;;4947971;29;20196;-72
2023/05/28 01:41:29;;;;;;;7.53;3.95;;;15.80;58.80;;;;;;4932231;29;20604;-73
2023/05/28 01:43:57;;;;;;;6.70;4.18;;;15.80;58.40;;;;;;4931773;29;20184;-74
2023/05/28 01:46:24;;;;;;;7.82;4.25;;;15.80;58.60;;;;;;4916416;29;20174;-73
2023/05/28 01:48:50;;;;;;;5.35;4.05;;;15.70;58.70;;;;;;4947748;29;20726;-73
2023/05/28 01:51:21;;;;;;;6.50;3.58;;;15.70;59.50;;;;;;4948019;28;20208;-73
2023/05/28 01:53:47;;;;;;;8.00;4.15;;;15.60;59.20;;;;;;4947618;29;20185;-73
2023/05/28 01:56:13;;;;;;;6.40;3.70;;;15.60;59.20;;;;;;4932373;29;20518;-73
2023/05/28 01:58:40;;;;;;;6.75;3.75;;;15.60;59.40;;;;;;4947841;29;20228;-72
2023/05/28 02:01:18;;;;;;;7.75;3.55;;;15.60;59.60;;;;;;4947779;29;20197;-73
2023/05/28 02:03:44;;;;;;;4.60;3.17;;;15.50;59.80;;;;;;4932430;29;20173;-74
2023/05/28 02:06:11;;;;;;;10.57;3.35;;;15.50;59.80;;;;;;4947641;29;20595;-74
2023/05/28 02:08:36;;;;;;;8.90;4.23;;;15.50;59.80;;;;;;4933110;29;20184;-73
2023/05/28 02:11:05;;;;;;;6.23;4.03;;;15.50;60.00;;;;;;4933460;29;20197;-72
2023/05/28 02:13:31;;;;;;;7.55;4.15;;;15.50;60.30;;;;;;4951563;29;20178;-73
2023/05/28 02:15:57;;;;;;;6.07;4.22;;;15.50;60.30;;;;;;4935132;29;20181;-73
2023/05/28 02:18:24;;;;;;;5.55;3.50;;;15.50;60.50;;;;;;4951372;29;20194;-73
2023/05/28 02:20:50;;;;;;;6.63;4.63;;;15.50;60.60;;;;;;4950905;28;20255;-72
2023/05/28 02:23:16;;;;;;;8.07;4.60;;;15.50;61.00;;;;;;4935248;29;20633;-72
2023/05/28 02:25:42;;;;;;;5.50;4.53;;;15.50;61.30;;;;;;4935322;29;20687;-73
2023/05/28 02:28:07;;;;;;;7.17;4.43;;;15.50;61.40;;;;;;4936141;29;20543;-72
2023/05/28 02:30:33;;;;;;;6.27;4.33;;;15.50;61.60;;;;;;4951250;28;20215;-73
2023/05/28 02:32:59;;;;;;;5.53;4.27;;;15.50;62.00;;;;;;4936143;29;20700;-73
2023/05/28 02:35:25;;;;;;;7.37;4.33;;;15.40;62.30;;;;;;4960533;28;20191;-73
2023/05/28 02:37:51;;;;;;;10.50;5.20;;;15.50;62.80;;;;;;4937962;29;20548;-73
2023/05/28 02:40:17;;;;;;;5.87;2.97;;;15.50;62.80;;;;;;4931915;29;20648;-72
2023/05/28 02:42:43;;;;;;;6.53;3.88;;;15.40;62.90;;;;;;4931501;29;20643;-73
2023/05/28 02:45:10;;;;;;;4.50;3.90;;;15.40;63.30;;;;;;4947958;29;20230;-73
2023/05/28 02:47:36;;;;;;;5.30;4.32;;;15.40;63.50;;;;;;4931148;29;20265;-73
2023/05/28 02:50:02;;;;;;;8.52;4.50;;;15.40;63.90;;;;;;4947812;29;20276;-72
2023/05/28 02:52:38;;;;;;;5.85;3.30;;;15.40;64.20;;;;;;4947404;29;20192;-73
2023/05/28 02:55:06;;;;;;;5.90;3.85;;;15.40;64.20;;;;;;4947437;29;20238;-72
2023/05/28 02:57:31;;;;;;;6.13;4.10;;;15.40;64.40;;;;;;4947335;29;20178;-73
2023/05/28 02:59:58;;;;;;;8.10;4.50;;;15.40;65.40;;;;;;4931060;29;20745;-73
2023/05/28 03:02:23;;;;;;;6.70;4.67;;;15.40;65.80;;;;;;4947411;29;20174;-73
2023/05/28 03:04:49;;;;;;;6.50;3.97;;;15.40;65.30;;;;;;4931267;29;20186;-72
2023/05/28 03:07:16;;;;;;;5.28;3.38;;;15.30;65.60;;;;;;4947323;29;20631;-72
2023/05/28 03:09:42;;;;;;;5.87;4.07;;;15.30;65.70;;;;;;4930960;29;20249;-72
2023/05/28 03:12:08;;;;;;;5.73;4.03;;;15.30;65.90;;;;;;4947219;28;20216;-72
2023/05/28 03:14:33;;;;;;;6.20;4.20;;;15.30;66.40;;;;;;4930932;29;20673;-72
2023/05/28 03:16:59;;;;;;;7.07;3.80;;;15.20;66.50;;;;;;4931030;29;20988;-72
2023/05/28 03:19:25;;;;;;;5.63;3.90;;;15.20;67.00;;;;;;4931294;29;20637;-72
2023/05/28 03:21:51;;;;;;;8.90;4.63;;;15.20;67.50;;;;;;4930097;29;20193;-72
2023/05/28 03:24:19;;;;;;;4.85;3.92;;;15.10;67.80;;;;;;4931098;29;20578;-72
2023/05/28 03:26:49;;;;;;;7.18;4.45;;;15.10;68.20;;;;;;4946046;29;20181;-72
2023/05/28 03:29:20;;;;;;;5.38;3.95;;;15.00;68.50;;;;;;4931251;29;20185;-72
2023/05/28 03:31:52;;;;;;;6.95;4.00;;;15.00;69.00;;;;;;4957103;28;20291;-72
2023/05/28 03:34:21;;;;;;;7.20;3.85;;;14.90;69.40;;;;;;4950928;29;20176;-72
2023/05/28 03:36:46;;;;;;;6.97;4.90;;;14.90;70.00;;;;;;4935469;28;20270;-73
2023/05/28 03:39:12;;;;;;;6.03;4.17;;;14.90;70.50;;;;;;4934032;29;20861;-73
2023/05/28 03:41:38;;;;;;;5.83;4.13;;;14.80;70.90;;;;;;4933697;29;20287;-73
2023/05/28 03:44:05;;;;;;;6.70;4.45;;;14.80;71.50;;;;;;4934055;29;20989;-73
2023/05/28 03:46:31;;;;;;;11.68;4.50;;;14.80;72.10;;;;;;4949768;29;20531;-73
2023/05/28 03:48:57;;;;;;;6.27;4.33;;;14.70;72.60;;;;;;4934804;29;20173;-73
2023/05/28 03:51:25;;;;;;;7.60;4.20;;;14.70;73.20;;;;;;4933656;29;20611;-72
2023/05/28 03:53:50;;;;;;;7.87;4.50;;;14.70;73.90;;;;;;4933327;29;20679;-73
2023/05/28 03:56:19;;;;;;;7.22;4.40;;;14.60;74.40;;;;;;4949754;29;20692;-73
2023/05/28 03:58:46;;;;;;;7.03;4.40;;;14.60;74.80;;;;;;4917334;29;20208;-73
2023/05/28 04:01:12;;;;;;;5.40;4.70;;;14.60;75.40;;;;;;4933590;29;20227;-73
2023/05/28 04:03:38;;;;;;;7.07;4.15;;;14.60;75.90;;;;;;4949132;29;20169;-73
2023/05/28 04:06:06;;;;;;;6.95;4.20;;;14.60;76.50;;;;;;4933701;29;20169;-72
2023/05/28 04:08:33;;;;;;;7.65;3.70;;;14.70;77.30;;;;;;4949233;29;20173;-72
2023/05/28 04:10:58;;;;;;;5.43;4.40;;;14.70;77.70;;;;;;4933431;29;20189;-73
2023/05/28 04:13:24;;;;;;;6.77;4.03;;;14.70;78.60;;;;;;4934755;29;20180;-72
2023/05/28 04:15:50;;;;;;;6.65;4.50;;;14.70;78.90;;;;;;4948809;29;20169;-73
2023/05/28 04:18:16;;;;;;;6.97;3.80;;;14.70;79.70;;;;;;4977368;23;20218;-75
2023/05/28 04:20:42;;;;;;;5.78;4.20;;;14.70;80.20;;;;;;4990679;28;20606;-75
2023/05/28 04:23:09;;;;;;;5.73;3.90;;;14.80;80.80;;;;;;4991083;28;20317;-75
2023/05/28 04:25:36;;;;;;;5.88;4.72;;;14.90;81.50;;;;;;4990758;28;20179;-75
2023/05/28 04:28:01;;;;;;;5.97;3.50;;;15.00;82.30;;;;;;4986915;28;20704;-75
2023/05/28 04:30:28;;;;;;;6.00;3.75;;;15.20;83.40;;;;;;4972587;28;20181;-75
2023/05/28 04:32:54;;;;;;;5.77;3.50;;;15.30;84.60;;;;;;4970808;28;20183;-75
2023/05/28 04:35:21;;;;;;;12.83;4.80;;;15.50;84.60;;;;;;5001530;28;20171;-75
2023/05/28 04:37:48;;;;;;;5.47;4.03;;;15.60;84.80;;;;;;4990295;28;20270;-75
2023/05/28 04:40:14;;;;;;;5.87;4.23;;;15.80;85.60;;;;;;4992126;28;20708;-75
2023/05/28 04:42:41;;;;;;;9.70;4.00;;;15.90;85.00;;;;;;4990266;28;20686;-75
2023/05/28 04:45:10;;;;;;;6.50;3.93;;;16.10;85.90;;;;;;4981897;28;20583;-75
2023/05/28 04:47:38;;;;;;;4.77;3.57;;;16.30;86.60;;;;;;4970473;28;20627;-74
2023/05/28 04:50:04;;;;;;;8.30;3.13;;;16.50;86.60;;;;;;4971395;28;20574;-75
2023/05/28 04:52:32;;;;;;;5.17;3.83;;;16.70;86.50;;;;;;4970693;28;20583;-75
2023/05/28 04:54:59;;;;;;;7.17;3.73;;;17.00;86.70;;;;;;4987477;28;20583;-75
2023/05/28 04:57:24;;;;;;;5.50;3.00;;;17.20;86.30;;;;;;4970559;28;20613;-75
2023/05/28 04:59:51;;;;;;;6.23;3.20;;;17.30;85.30;;;;;;4987347;28;20639;-75
2023/05/28 05:02:18;;;;;;;6.60;3.60;;;17.50;84.60;;;;;;4971238;28;20575;-75
2023/05/28 05:04:45;;;;;;;8.10;4.30;;;17.60;84.40;;;;;;4970764;28;20606;-75
2023/05/28 05:07:14;;;;;;;6.00;3.50;;;17.80;84.20;;;;;;4970736;28;20595;-75
2023/05/28 05:09:40;;;;;;;5.10;3.37;;;18.10;84.10;;;;;;4970646;28;20589;-75
2023/05/28 05:12:07;;;;;;;5.50;3.10;;;18.30;84.20;;;;;;4954995;28;20645;-75
2023/05/28 05:14:34;;;;;;;7.63;3.67;;;18.60;84.20;;;;;;4970591;28;20583;-75
2023/05/28 05:17:00;;;;;;;7.13;3.23;;;18.80;83.20;;;;;;4972080;28;20579;-75
2023/05/28 05:19:27;;;;;;;5.90;3.73;;;19.00;82.40;;;;;;4954206;28;20658;-75
2023/05/28 05:21:52;;;;;;;5.60;3.07;;;19.10;81.80;;;;;;4987152;28;20638;-75
2023/05/28 05:24:19;;;;;;;5.10;3.57;;;19.30;81.60;;;;;;4977954;28;20603;-75
2023/05/28 05:26:45;;;;;;;6.60;3.23;;;19.40;81.00;;;;;;4986395;28;20663;-75
2023/05/28 05:29:11;;;;;;;6.30;4.00;;;19.60;80.70;;;;;;4970855;28;20611;-75
2023/05/28 05:31:37;;;;;;;5.53;4.63;;;19.70;80.80;;;;;;4970309;28;21198;-74
2023/05/28 05:34:05;;;;;;;6.90;4.50;;;19.70;80.30;;;;;;4974640;28;20187;-75
2023/05/28 05:36:33;;;;;;;8.20;5.30;;;19.70;79.90;;;;;;4990839;28;20593;-75
2023/05/28 05:39:20;;;;;;;9.73;5.77;;;19.60;79.60;;;;;;4990372;28;20984;-75
2023/05/28 05:42:01;;;;;;;7.37;4.93;;;19.60;79.80;;;;;;4991062;28;20600;-75
2023/05/28 05:44:31;;;;;;;9.60;5.43;;;19.50;79.80;;;;;;4991389;28;21039;-75
2023/05/28 05:46:58;;;;;;;4.87;4.07;;;19.50;80.90;;;;;;4977109;28;20585;-75
2023/05/28 05:49:24;;;;;;;7.93;4.47;;;19.70;81.00;;;;;;4993993;28;20649;-75
2023/05/28 05:51:52;;;;;;;6.90;4.67;;;20.20;82.70;;;;;;4993359;28;20947;-75
2023/05/28 05:54:19;;;;;;;7.70;4.40;;;20.90;84.30;;;;;;4993892;28;20620;-75
2023/05/28 05:56:45;;;;;;;6.47;4.90;;;21.60;85.40;;;;;;4976924;28;20861;-75
2023/05/28 05:59:11;;;;;;;6.60;4.00;;;22.50;85.60;;;;;;4993465;28;21100;-75
2023/05/28 06:01:37;;;;;;;7.30;4.80;;;23.40;84.80;;;;;;4993591;28;20681;-75
2023/05/28 06:04:03;;;;;;;4.60;3.93;;;24.30;83.50;;;;;;4993216;28;20171;-75
2023/05/28 06:07:05;;;;;;;5.20;3.67;;;25.20;82.50;;;;;;4942263;28;20235;-75
2023/05/28 06:10:01;;;;;;;4.50;3.87;;;26.20;81.30;;;;;;4985658;28;20597;-73
2023/05/28 06:12:32;;;;;;;5.73;3.60;;;27.20;79.00;;;;;;4977171;28;20686;-73
2023/05/28 06:15:00;;;;;;;4.30;3.30;;;28.00;74.40;;;;;;4976767;28;20594;-73
2023/05/28 06:17:26;;;;;;;5.37;3.57;;;28.70;73.50;;;;;;4994101;28;20301;-74
2023/05/28 06:19:52;;;;;;;4.90;4.00;;;29.40;72.00;;;;;;4970358;28;20742;-74
2023/05/28 06:22:18;;;;;;;5.37;4.03;;;30.00;69.50;;;;;;4983507;28;20657;-74
2023/05/28 06:24:46;;;;;;;5.20;3.20;;;30.60;67.20;;;;;;4984459;28;20586;-75
2023/05/28 06:27:12;;;;;;;4.40;3.23;;;31.10;65.40;;;;;;4976664;28;20570;-75
2023/05/28 06:29:38;;;;;;;6.63;3.20;;;31.60;63.70;;;;;;4992730;28;20664;-75
2023/05/28 06:32:05;;;;;;;3.93;2.70;;;32.20;62.10;;;;;;4993120;28;20566;-75
2023/05/28 06:34:31;;;;;;;4.17;2.80;;;32.60;60.20;;;;;;4990102;28;20687;-75
2023/05/28 06:36:57;;;;;;;6.30;3.33;;;32.90;58.30;;;;;;4992397;28;20609;-75
2023/05/28 06:39:23;;;;;;;5.37;3.00;;;33.30;57.50;;;;;;4993001;28;20217;-75
2023/05/28 06:41:51;;;;;;;7.50;2.77;;;33.70;56.70;;;;;;4992449;28;20586;-75
2023/05/28 06:44:36;;;;;;;5.10;3.20;;;34.10;55.70;;;;;;4993057;28;20571;-75
2023/05/28 06:47:11;;;;;;;3.87;3.23;;;34.50;54.60;;;;;;4975799;28;20618;-75
2023/05/28 06:49:37;;;;;;;3.57;2.70;;;34.80;53.00;;;;;;4992995;28;20988;-75
2023/05/28 06:52:03;;;;;;;4.60;3.50;;;35.00;52.30;;;;;;4992305;28;20193;-75
2023/05/28 06:54:29;;;;;;;4.20;2.90;;;35.40;51.60;;;;;;4992721;28;20183;-76
2023/05/28 06:56:55;;;;;;;3.37;2.67;;;35.70;50.70;;;;;;5007487;28;20640;-75
2023/05/28 06:59:39;;;;;;;4.20;2.80;;;35.90;49.90;;;;;;4994009;28;20198;-75
2023/05/28 07:02:05;;;;;;;7.13;3.30;;;36.20;49.00;;;;;;4992012;28;20640;-75
2023/05/28 07:04:47;;;;;;;4.50;2.70;;;36.30;48.30;;;;;;4991307;28;20589;-75
2023/05/28 07:07:17;;;;;;;5.80;2.70;;;36.50;47.70;;;;;;4981850;28;21153;-75
2023/05/28 07:09:43;;;;;;;4.00;3.00;;;36.70;47.00;;;;;;5008543;28;20608;-75
2023/05/28 07:12:09;;;;;;;3.90;2.53;;;36.90;46.30;;;;;;4992276;28;20613;-75
2023/05/28 07:14:38;;;;;;;5.00;3.57;;;37.00;45.30;;;;;;5008263;28;20609;-75
2023/05/28 07:17:04;;;;;;;5.00;3.40;;;37.10;44.70;;;;;;4999947;28;20605;-75
2023/05/28 07:19:31;;;;;;;3.43;2.40;;;37.20;44.50;;;;;;4966237;28;20345;-75
2023/05/28 07:21:57;;;;;;;3.37;2.00;;;37.40;44.00;;;;;;4992194;28;20589;-75
2023/05/28 07:24:24;;;;;;;4.30;2.60;;;37.60;43.90;;;;;;4959565;28;20632;-75
2023/05/28 07:26:50;;;;;;;4.47;3.00;;;37.80;43.50;;;;;;5008031;28;20922;-75
2023/05/28 07:29:18;;;;;;;4.87;2.90;;;38.10;43.00;;;;;;4991638;28;20630;-76
2023/05/28 07:31:44;;;;;;;4.83;2.27;;;38.30;42.60;;;;;;4975847;28;20688;-75
2023/05/28 07:34:11;;;;;;;3.50;2.50;;;38.60;42.20;;;;;;4987058;28;20739;-75
2023/05/28 07:36:42;;;;;;;3.73;2.60;;;38.80;41.50;;;;;;4986977;28;20595;-75
2023/05/28 07:39:10;;;;;;;5.37;2.50;;;39.00;41.30;;;;;;4988711;28;21007;-75
2023/05/28 07:41:36;;;;;;;8.20;2.50;;;39.20;40.70;;;;;;4988091;28;20184;-75
2023/05/28 07:44:22;;;;;;;6.13;2.40;;;39.50;40.20;;;;;;4977760;28;20594;-75
2023/05/28 07:46:49;;;;;;;3.53;2.00;;;39.70;40.00;;;;;;4959653;28;20603;-75
2023/05/28 07:49:44;;;;;;;3.30;2.00;;;39.90;39.70;;;;;;4973492;28;20606;-75
2023/05/28 07:52:11;;;;;;;3.90;2.20;;;40.20;39.30;;;;;;4955659;28;21013;-75
2023/05/28 07:54:39;;;;;;;3.07;2.67;;;40.30;38.70;;;;;;4974701;28;21184;-75
2023/05/28 07:57:06;;;;;;;5.73;2.20;;;40.50;38.20;;;;;;4955411;28;20666;-75
2023/05/28 07:59:35;;;;;;;4.43;1.87;;;40.70;38.00;;;;;;4955974;28;20667;-75
2023/05/28 08:02:02;;;;;;;4.83;2.47;;;40.80;37.50;;;;;;4971676;28;20594;-75
2023/05/28 08:04:29;;;;;;;4.40;2.67;;;40.90;36.70;;;;;;4956125;28;20705;-75
2023/05/28 08:06:56;;;;;;;4.60;3.00;;;41.00;36.30;;;;;;4971343;28;21134;-75
2023/05/28 08:09:23;;;;;;;2.90;1.63;;;41.00;35.90;;;;;;4971013;28;20629;-75
2023/05/28 08:11:51;;;;;;;3.53;2.33;;;41.00;36.10;;;;;;4972568;28;20629;-75
2023/05/28 08:14:19;;;;;;;4.23;1.90;;;41.10;35.90;;;;;;4979601;28;20591;-74
2023/05/28 08:16:46;;;;;;;6.47;2.10;;;41.20;35.50;;;;;;4987852;28;20590;-75
2023/05/28 08:19:35;;;;;;;3.97;2.33;;;41.20;34.90;;;;;;4971929;28;21018;-75
2023/05/28 08:22:03;;;;;;;4.13;1.73;;;41.30;34.30;;;;;;4996606;28;20590;-75
2023/05/28 08:24:30;;;;;;;3.53;1.93;;;41.30;33.90;;;;;;5007123;28;20632;-75
2023/05/28 08:26:55;;;;;;;4.20;2.00;;;41.30;33.60;;;;;;4973203;28;20578;-75
2023/05/28 08:29:23;;;;;;;3.20;2.10;;;41.40;33.70;;;;;;4988673;28;20618;-76
2023/05/28 08:31:57;;;;;;;4.60;1.70;;;41.40;33.00;;;;;;4972906;28;21171;-75
2023/05/28 08:34:36;;;;;;;3.67;2.27;;;41.30;33.00;;;;;;4970055;28;20595;-75
2023/05/28 08:37:04;;;;;;;4.00;2.60;;;41.20;32.60;;;;;;5007017;28;20950;-75
2023/05/28 08:39:35;;;;;;;2.83;1.90;;;41.30;32.30;;;;;;5006659;28;20703;-75
2023/05/28 08:42:01;;;;;;;3.70;2.43;;;41.30;32.10;;;;;;4990665;28;20589;-75
2023/05/28 08:44:28;;;;;;;2.80;1.33;;;41.30;31.90;;;;;;4991494;28;20593;-75
2023/05/28 08:46:55;;;;;;;3.50;2.03;;;41.30;31.90;;;;;;4974030;28;20590;-76
2023/05/28 08:49:47;;;;;;;2.83;1.60;;;41.30;31.40;;;;;;4991540;28;20578;-75
2023/05/28 08:52:17;;;;;;;2.57;1.67;;;41.40;31.10;;;;;;4990221;28;20634;-76
2023/05/28 08:54:46;;;;;;;3.03;1.50;;;41.40;30.70;;;;;;4990974;28;20993;-75
2023/05/28 08:57:12;;;;;;;4.53;2.00;;;41.40;30.90;;;;;;4989902;28;20582;-75
2023/05/28 08:59:46;;;;;;;3.60;1.90;;;41.40;30.30;;;;;;5006784;28;20744;-75
2023/05/28 09:02:13;;;;;;;4.53;1.73;;;41.50;30.70;;;;;;4989863;28;20588;-75
2023/05/28 09:04:45;;;;;;;2.80;1.57;;;41.70;31.10;;;;;;5006840;28;20685;-76
2023/05/28 09:07:12;;;;;;;3.33;1.80;;;41.80;30.40;;;;;;4986832;28;20590;-75
2023/05/28 09:09:47;;;;;;;2.73;1.60;;;41.90;30.30;;;;;;4986546;28;20622;-75
2023/05/28 09:12:21;;;;;;;3.97;1.37;;;41.90;30.20;;;;;;4975921;28;20601;-75
2023/05/28 09:14:53;;;;;;;4.60;1.90;;;42.10;30.50;;;;;;4982956;28;20595;-75
2023/05/28 09:17:37;;;;;;;3.40;2.00;;;42.10;29.80;;;;;;4993650;28;20930;-76
2023/05/28 09:20:10;;;;;;;3.10;1.83;;;42.20;29.80;;;;;;4975746;28;20741;-75
2023/05/28 09:22:37;;;;;;;3.10;1.87;;;42.20;30.00;;;;;;4998524;28;20590;-75
2023/05/28 09:25:38;;;;;;;3.20;1.40;;;42.40;30.00;;;;;;4978547;28;20665;-75
2023/05/28 09:28:16;;;;;;;3.20;1.90;;;42.50;29.60;;;;;;4957547;28;21059;-76
2023/05/28 09:30:42;;;;;;;2.93;1.60;;;42.60;29.30;;;;;;4975994;28;20586;-76
2023/05/28 09:33:09;;;;;;;2.40;1.60;;;42.70;29.10;;;;;;4974384;28;20184;-75
2023/05/28 09:35:35;;;;;;;3.77;1.43;;;42.70;29.00;;;;;;5006305;28;20672;-76
2023/05/28 09:38:08;;;;;;;4.40;1.57;;;42.60;29.00;;;;;;4986500;28;20622;-76
2023/05/28 09:40:45;;;;;;;3.10;1.50;;;42.70;29.10;;;;;;4992511;28;20633;-75
2023/05/28 09:43:11;;;;;;;4.13;1.67;;;42.70;28.50;;;;;;5005535;28;20690;-75
2023/05/28 09:45:37;;;;;;;3.67;1.73;;;42.70;28.80;;;;;;4982985;28;20594;-75
2023/05/28 09:48:03;;;;;;;3.20;2.00;;;42.80;28.90;;;;;;4987456;28;20199;-75
2023/05/28 09:50:29;;;;;;;4.80;1.70;;;42.80;28.90;;;;;;4993245;28;20641;-75
2023/05/28 09:52:57;;;;;;;7.17;2.10;;;42.70;28.10;;;;;;5010209;28;20652;-75
2023/05/28 09:55:28;;;;;;;4.03;2.67;;;42.60;28.30;;;;;;5009469;28;20601;-76
2023/05/28 09:58:04;;;;;;;4.17;1.97;;;42.60;27.70;;;;;;4994877;28;20601;-76
2023/05/28 10:00:46;;;;;;;2.43;1.40;;;42.40;26.80;;;;;;4991770;28;20597;-75
2023/05/28 10:03:33;;;;;;;2.83;1.70;;;42.20;27.50;;;;;;4974229;28;20991;-76
2023/05/28 10:06:10;;;;;;;7.83;1.80;;;42.20;27.50;;;;;;4984439;28;20684;-75
2023/05/28 10:08:37;;;;;;;5.03;1.60;;;42.10;27.80;;;;;;4974022;28;20613;-75
2023/05/28 10:11:05;;;;;;;4.23;1.87;;;42.00;27.70;;;;;;4957457;28;20597;-75
2023/05/28 10:13:32;;;;;;;3.00;1.67;;;42.00;27.40;;;;;;4984937;28;20608;-75
2023/05/28 10:15:57;;;;;;;5.53;1.90;;;41.90;27.20;;;;;;4994742;28;20997;-75
2023/05/28 10:18:25;;;;;;;3.03;1.90;;;42.00;27.10;;;;;;5008722;28;20661;-75
2023/05/28 10:20:51;;;;;;;3.67;1.70;;;42.00;27.20;;;;;;4994552;28;20186;-75
2023/05/28 10:23:19;;;;;;;3.50;2.17;;;42.00;27.60;;;;;;4995882;28;20618;-75
2023/05/28 10:25:46;;;;;;;3.50;1.70;;;42.20;27.10;;;;;;4973827;28;20686;-76
2023/05/28 10:32:02;;;;;;;4.00;2.00;;;42.20;27.30;;;;;;4973713;28;20649;-74
2023/05/28 10:34:32;;;;;;;3.50;1.97;;;42.20;27.00;;;;;;4981293;28;20597;-74
2023/05/28 10:37:02;;;;;;;3.33;1.50;;;42.20;27.20;;;;;;4992992;28;20723;-74
2023/05/28 10:39:38;;;;;;;3.90;2.00;;;42.20;27.10;;;;;;4990389;28;20659;-75
2023/05/28 10:42:08;;;;;;;2.47;1.40;;;42.20;26.80;;;;;;4994299;28;20685;-74
2023/05/28 10:44:59;;;;;;;2.93;1.57;;;42.10;27.10;;;;;;5008778;28;20759;-74
2023/05/28 10:47:37;;;;;;;2.17;1.40;;;42.20;26.90;;;;;;5009052;28;20586;-75
2023/05/28 10:50:10;;;;;;;4.23;1.70;;;42.00;26.30;;;;;;4993431;28;20645;-75
2023/05/28 10:52:36;;;;;;;7.00;2.20;;;41.70;26.50;;;;;;4993911;28;20565;-74
2023/05/28 10:55:04;;;;;;;3.43;1.37;;;41.50;26.20;;;;;;4993150;28;20566;-74
2023/05/28 10:57:44;;;;;;;3.40;1.90;;;41.20;25.80;;;;;;4993723;28;20621;-74
2023/05/28 11:00:14;;;;;;;4.30;2.03;;;40.80;25.80;;;;;;4993176;28;20685;-74
2023/05/28 11:02:44;;;;;;;3.80;1.93;;;40.60;26.00;;;;;;5005313;28;20670;-74
2023/05/28 11:05:10;;;;;;;3.00;2.00;;;40.40;26.30;;;;;;5001578;28;21150;-74
2023/05/28 11:07:41;;;;;;;3.13;2.10;;;40.10;26.70;;;;;;4993432;28;20697;-74
2023/05/28 11:10:09;;;;;;;2.93;2.10;;;40.00;26.30;;;;;;5008496;28;20672;-74
2023/05/28 11:12:40;;;;;;;2.50;1.80;;;39.90;26.20;;;;;;4993002;28;20669;-74
2023/05/28 11:15:08;;;;;;;3.40;1.73;;;39.60;25.80;;;;;;4993367;28;20582;-74
2023/05/28 11:17:41;;;;;;;3.10;1.63;;;39.40;26.20;;;;;;4992868;28;21248;-74
2023/05/28 11:20:28;;;;;;;2.40;1.67;;;39.20;25.90;;;;;;4993383;28;20589;-74
2023/05/28 11:22:55;;;;;;;3.37;1.57;;;38.90;26.20;;;;;;4992962;28;20641;-74
2023/05/28 11:25:22;;;;;;;4.03;1.60;;;38.70;26.20;;;;;;5008697;28;20633;-74
2023/05/28 11:27:50;;;;;;;3.63;2.10;;;38.60;25.90;;;;;;4992345;28;20617;-74
2023/05/28 11:30:17;;;;;;;3.20;1.63;;;38.30;26.20;;;;;;4993440;28;20628;-74
2023/05/28 11:32:44;;;;;;;2.50;1.30;;;38.20;26.20;;;;;;4991401;28;20713;-74
2023/05/28 11:35:12;;;;;;;3.70;2.70;;;37.90;26.00;;;;;;4993170;28;21203;-74
2023/05/28 11:37:39;;;;;;;3.80;2.10;;;37.80;26.30;;;;;;4991414;28;20618;-74
2023/05/28 11:40:10;;;;;;;5.20;2.07;;;37.70;26.30;;;;;;4992977;28;20927;-74
2023/05/28 11:42:36;;;;;;;3.07;1.80;;;37.50;26.40;;;;;;4991445;28;20601;-75
2023/05/28 11:45:03;;;;;;;2.93;2.17;;;37.40;26.10;;;;;;4991374;28;21116;-74
2023/05/28 11:47:32;;;;;;;2.90;1.60;;;37.20;26.10;;;;;;4993132;28;20689;-75
2023/05/28 11:49:58;;;;;;;2.87;1.90;;;36.90;26.00;;;;;;4974674;28;20674;-74
2023/05/28 11:52:25;;;;;;;3.67;2.07;;;36.70;25.90;;;;;;4991689;28;20688;-74
2023/05/28 11:54:57;;;;;;;3.37;2.20;;;36.40;26.00;;;;;;4992584;28;20171;-74
2023/05/28 11:57:25;;;;;;;3.47;1.93;;;36.20;26.10;;;;;;4984398;28;20607;-74
2023/05/28 12:00:11;;;;;;;3.40;2.23;;;36.10;26.40;;;;;;4982247;28;20709;-74
2023/05/28 12:02:46;;;;;;;4.23;2.57;;;35.90;25.90;;;;;;4973216;28;20583;-74
2023/05/28 12:05:12;;;;;;;3.00;1.70;;;35.80;26.30;;;;;;4972885;28;20687;-74
2023/05/28 12:07:50;;;;;;;3.60;2.10;;;35.70;26.40;;;;;;4988122;28;20607;-74
2023/05/28 12:10:20;;;;;;;3.13;1.80;;;35.60;26.30;;;;;;4971557;28;20642;-74
2023/05/28 12:12:51;;;;;;;2.53;1.70;;;35.50;26.40;;;;;;4971734;28;20579;-74
2023/05/28 12:15:21;;;;;;;5.43;2.47;;;35.30;26.70;;;;;;4972725;28;20570;-74
2023/05/28 12:17:58;;;;;;;3.20;1.80;;;35.00;26.70;;;;;;4972636;28;21308;-74
2023/05/28 12:20:24;;;;;;;3.53;1.63;;;34.80;26.80;;;;;;4971651;28;20687;-74
2023/05/28 12:23:09;;;;;;;2.70;2.17;;;34.60;26.90;;;;;;4987741;28;20676;-74
2023/05/28 12:25:48;;;;;;;4.40;2.00;;;34.30;27.20;;;;;;4972996;28;20183;-74
2023/05/28 12:28:16;;;;;;;3.03;2.33;;;34.10;27.30;;;;;;4987315;28;20622;-74
2023/05/28 12:30:44;;;;;;;3.53;1.90;;;33.90;27.30;;;;;;4988041;28;20620;-74
2023/05/28 12:33:10;;;;;;;2.83;2.10;;;33.70;27.50;;;;;;4972355;28;20908;-74
2023/05/28 12:35:36;;;;;;;3.00;1.90;;;33.50;27.70;;;;;;4988669;28;20602;-73
2023/05/28 12:38:04;;;;;;;3.47;1.87;;;33.30;27.60;;;;;;4991447;28;20611;-74
2023/05/28 12:40:30;;;;;;;2.50;1.70;;;33.10;27.60;;;;;;4992170;28;20182;-74
2023/05/28 12:42:56;;;;;;;3.00;2.10;;;32.90;27.70;;;;;;4991504;28;20593;-74
2023/05/28 12:45:21;;;;;;;3.17;1.87;;;32.60;27.70;;;;;;4992172;28;20541;-74
2023/05/28 12:47:47;;;;;;;3.77;2.30;;;32.30;27.70;;;;;;4991410;28;20191;-78
2023/05/28 12:50:13;;;;;;;2.63;1.70;;;32.00;27.50;;;;;;4992096;28;20198;-78
2023/05/28 12:52:39;;;;;;;2.60;1.23;;;31.70;27.50;;;;;;4991408;28;20178;-78
2023/05/28 12:55:06;;;;;;;3.00;1.70;;;31.40;27.60;;;;;;5006022;28;20585;-78
2023/05/28 12:57:32;;;;;;;3.00;1.80;;;31.10;28.00;;;;;;4972227;28;20195;-78